.
WxDataArchive / Data Records for 2008-06-19
2008-06-18 June 2008 2008-06-20

Data Records for Thursday, 19 June 2008

Time	Temp	Chill	HIndex	Humid	Dewpt	 Wind 	HiWind	WindDir	Rain 	Barom 
-----	----	-----	------	-----	-----	------	------	-------	-----	----- 
00:00	54.4	54.4	54.4	80	48.4	0	0	---	0.00	29.856 
00:05	54.2	54.2	54.2	81	48.5	0	0	---	0.00	29.854 
00:10	54.1	54.1	54.1	81	48.4	0	0	---	0.00	29.854 
00:15	53.8	53.8	53.8	82	48.4	0	0	---	0.00	29.853 
00:20	53.6	53.6	53.6	83	48.6	0	0	---	0.00	29.853 
00:25	53.5	53.5	53.5	84	48.8	0	0	---	0.00	29.851 
00:30	53.3	53.3	53.3	84	48.6	0	0	---	0.00	29.852 
00:35	53.1	53.1	53.1	85	48.7	0	0	---	0.00	29.854 
00:40	52.9	52.9	52.9	85	48.5	0	0	---	0.00	29.854 
00:45	52.8	52.8	52.8	85	48.4	0	0	---	0.00	29.855 
00:50	52.6	52.6	52.6	86	48.5	0	0	---	0.00	29.856 
00:55	52.5	52.5	52.5	86	48.4	0	0	---	0.00	29.856 
01:00	52.3	52.3	52.3	87	48.5	0	0	---	0.00	29.857 
01:05	52.3	52.3	52.3	87	48.5	0	0	---	0.00	29.857 
01:10	52.2	52.2	52.2	88	48.8	0	0	---	0.00	29.856 
01:15	52.0	52.0	52.0	88	48.6	0	0	---	0.00	29.857 
01:20	52.0	52.0	52.0	88	48.6	0	0	---	0.00	29.856 
01:25	51.9	51.9	51.9	88	48.5	0	0	---	0.00	29.856 
01:30	51.7	51.7	51.7	89	48.6	0	0	---	0.00	29.857 
01:35	51.7	51.7	51.7	89	48.6	0	0	---	0.00	29.856 
01:40	51.6	51.6	51.6	89	48.5	0	0	---	0.00	29.857 
01:45	51.6	51.6	51.6	89	48.5	0	0	---	0.00	29.858 
01:50	51.4	51.4	51.4	90	48.6	0	0	---	0.00	29.861 
01:55	51.4	51.4	51.4	90	48.6	0	0	---	0.00	29.864 
02:00	51.4	51.4	51.4	90	48.6	0	0	---	0.00	29.864 
02:05	51.3	51.3	51.3	90	48.5	0	0	---	0.00	29.864 
02:10	51.3	51.3	51.3	90	48.5	0	0	---	0.00	29.864 
02:15	51.1	51.1	51.1	91	48.6	0	0	---	0.00	29.863 
02:20	51.1	51.1	51.1	91	48.6	0	0	---	0.00	29.862 
02:25	51.0	51.0	51.0	91	48.5	0	0	---	0.00	29.863 
02:30	51.0	51.0	51.0	91	48.5	0	0	---	0.00	29.864 
02:35	51.0	51.0	51.0	91	48.5	0	0	---	0.00	29.864 
02:40	50.8	50.8	50.8	91	48.3	0	0	---	0.00	29.865 
02:45	50.8	50.8	50.8	92	48.6	0	0	---	0.00	29.866 
02:50	50.8	50.8	50.8	92	48.6	0	0	---	0.00	29.866 
02:55	50.8	50.8	50.8	92	48.6	0	0	---	0.00	29.861 
03:00	50.8	50.8	50.8	92	48.6	0	0	---	0.00	29.864 
03:05	50.8	50.8	50.8	92	48.6	0	0	---	0.00	29.864 
03:10	50.8	50.8	50.8	92	48.6	0	0	---	0.00	29.863 
03:15	51.0	51.0	51.0	93	49.0	0	0	---	0.00	29.863 
03:20	51.3	51.3	51.3	93	49.3	0	0	---	0.00	29.861 
03:25	51.4	51.4	51.4	93	49.4	0	0	---	0.00	29.860 
03:30	51.7	51.7	51.7	93	49.7	0	0	---	0.00	29.859 
03:35	51.9	51.9	51.9	93	49.9	0	0	---	0.00	29.859 
03:40	52.0	52.0	52.0	93	50.0	0	0	---	0.00	29.858 
03:45	52.0	52.0	52.0	93	50.0	0	0	---	0.00	29.858 
03:50	52.2	52.2	52.2	92	49.9	0	0	---	0.00	29.858 
03:55	52.5	52.5	52.5	92	50.2	0	0	---	0.00	29.858 
04:00	52.6	52.6	52.6	92	50.3	0	0	---	0.00	29.858 
04:05	52.8	52.8	52.8	92	50.5	0	0	---	0.00	29.859 
04:10	52.9	52.9	52.9	91	50.3	0	0	---	0.00	29.861 
04:15	53.2	53.2	53.2	90	50.3	0	0	---	0.00	29.863 
04:20	53.5	53.5	53.5	89	50.3	0	0	---	0.00	29.861 
04:25	53.5	53.5	53.5	89	50.3	0	0	---	0.00	29.860 
04:30	53.6	53.6	53.6	89	50.4	0	0	---	0.00	29.862 
04:35	53.8	53.8	53.8	88	50.3	0	0	---	0.00	29.866 
04:40	53.8	53.8	53.8	88	50.3	0	0	---	0.00	29.865 
04:45	53.9	53.9	53.9	88	50.4	0	0	---	0.00	29.869 
04:50	53.9	53.9	53.9	88	50.4	0	0	---	0.00	29.871 
04:55	54.1	54.1	54.1	87	50.3	0	0	---	0.00	29.873 
05:00	54.1	54.1	54.1	87	50.3	0	0	---	0.00	29.874 
05:05	54.2	54.2	54.2	87	50.4	0	0	---	0.00	29.876 
05:10	54.2	54.2	54.2	86	50.1	0	0	---	0.00	29.875 
05:15	54.4	54.4	54.4	86	50.3	0	0	---	0.00	29.875 
05:20	54.4	54.4	54.4	86	50.3	0	0	---	0.00	29.875 
05:25	54.4	54.4	54.4	86	50.3	0	0	---	0.00	29.875 
05:30	54.4	54.4	54.4	86	50.3	0	0	---	0.00	29.876 
05:35	54.4	54.4	54.4	86	50.3	0	0	---	0.00	29.875 
05:40	54.4	54.4	54.4	86	50.3	0	0	---	0.00	29.875 
05:45	54.5	54.5	54.5	86	50.4	0	0	---	0.00	29.876 
05:50	54.7	54.7	54.7	86	50.6	0	0	---	0.00	29.876 
05:55	54.7	54.7	54.7	86	50.6	0	0	---	0.00	29.877 
06:00	54.8	54.8	54.8	86	50.7	0	0	---	0.00	29.878 
06:05	55.0	55.0	55.0	85	50.6	0	0	---	0.00	29.879 
06:10	55.0	55.0	55.0	85	50.6	0	0	---	0.00	29.883 
06:15	55.1	55.1	55.1	85	50.7	0	1	270	0.00	29.884 
06:20	55.1	55.1	55.1	85	50.7	0	1	270	0.00	29.888 
06:25	55.1	55.1	55.1	85	50.7	0	1	270	0.00	29.888 
06:30	55.3	55.3	55.3	85	50.9	0	1	270	0.00	29.891 
06:35	55.4	55.4	55.4	85	51.0	0	1	270	0.00	29.893 
06:40	55.6	55.6	55.6	85	51.2	0	1	270	0.00	29.894 
06:45	55.6	55.6	55.6	84	50.8	0	1	270	0.00	29.895 
06:50	55.6	55.6	55.6	85	51.2	0	1	270	0.00	29.893 
06:55	55.6	55.6	55.6	84	50.8	0	1	270	0.00	29.894 
07:00	55.7	55.7	55.7	84	50.9	0	1	270	0.00	29.893 
07:05	56.3	56.3	56.3	84	51.5	0	2	270	0.00	29.896 
07:10	56.9	56.9	56.9	83	51.8	1	3	270	0.00	29.897 
07:15	57.3	57.3	57.3	81	51.5	1	2	270	0.00	29.897 
07:20	57.8	57.8	57.8	79	51.3	1	2	292	0.00	29.900 
07:25	58.4	58.4	58.4	79	51.9	1	3	315	0.00	29.903 
07:30	58.9	58.9	58.9	77	51.7	1	2	292	0.00	29.904 
07:35	59.5	59.5	59.5	76	51.9	1	3	292	0.00	29.905 
07:40	59.6	59.6	59.6	74	51.3	1	4	248	0.00	29.906 
07:45	60.2	60.2	60.2	73	51.5	0	2	292	0.00	29.906 
07:50	60.9	60.9	60.9	73	52.2	0	2	292	0.00	29.904 
07:55	61.3	61.3	61.3	71	51.8	1	3	292	0.00	29.904 
08:00	61.5	61.5	61.5	69	51.2	1	4	270	0.00	29.904 
08:05	61.6	61.6	61.6	68	50.9	1	2	292	0.00	29.906 
08:10	61.8	61.8	61.8	68	51.1	1	4	292	0.00	29.907 
08:15	62.1	62.1	62.1	67	51.0	1	3	248	0.00	29.905 
08:20	62.6	62.6	62.6	69	52.3	1	2	315	0.00	29.904 
08:25	63.1	63.1	63.1	67	52.0	1	2	315	0.00	29.905 
08:30	63.4	63.4	63.4	67	52.2	0	2	315	0.00	29.906 
08:35	63.9	63.9	63.9	64	51.5	0	1	315	0.00	29.905 
08:40	64.0	64.0	64.0	62	50.7	1	2	292	0.00	29.909 
08:45	64.5	64.5	64.5	65	52.5	1	3	292	0.00	29.916 
08:50	64.8	64.8	64.8	62	51.5	1	3	292	0.00	29.917 
08:55	65.5	65.5	65.5	62	52.1	1	3	292	0.00	29.918 
09:00	65.6	65.6	65.6	61	51.8	1	4	270	0.00	29.917 
09:05	65.8	65.8	65.8	59	51.1	1	3	270	0.00	29.921 
09:10	65.6	65.6	65.6	59	50.9	1	2	315	0.00	29.923 
09:15	66.1	66.1	66.1	61	52.3	1	2	315	0.00	29.921 
09:20	66.8	66.8	66.8	58	51.5	1	3	270	0.00	29.922 
09:25	67.3	67.3	67.3	58	52.0	1	2	248	0.00	29.921 
09:30	67.6	67.6	67.6	59	52.8	1	3	248	0.00	29.920 
09:35	67.9	67.9	67.9	56	51.6	1	3	248	0.00	29.920 
09:40	68.3	68.3	68.3	57	52.5	1	3	248	0.00	29.919 
09:45	68.3	68.3	68.3	58	52.9	1	3	270	0.00	29.919 
09:50	68.4	68.4	68.4	56	52.1	1	3	248	0.00	29.919 
09:55	68.9	68.9	68.9	55	52.1	1	2	248	0.00	29.917 
10:00	68.9	68.9	68.9	53	51.1	1	4	270	0.00	29.918 
10:05	69.4	69.4	69.4	57	53.5	0	2	338	0.00	29.918 
10:10	69.8	69.8	69.8	55	52.9	1	3	248	0.00	29.916 
10:15	70.1	70.1	70.1	55	53.2	1	4	248	0.00	29.916 
10:20	70.1	70.1	70.1	54	52.7	1	3	292	0.00	29.917 
10:25	70.1	70.1	70.1	52	51.6	1	3	292	0.00	29.916 
10:30	70.4	70.4	70.4	52	51.9	2	3	248	0.00	29.918 
10:35	70.4	70.4	70.4	51	51.4	1	2	292	0.00	29.919 
10:40	70.6	70.6	70.6	54	53.1	1	3	315	0.00	29.917 
10:45	70.9	70.9	70.9	54	53.4	1	3	292	0.00	29.913 
10:50	71.1	71.1	71.1	49	51.0	1	4	270	0.00	29.914 
10:55	71.1	71.1	71.1	50	51.5	1	4	270	0.00	29.912 
11:00	71.3	71.3	71.3	52	52.8	1	3	292	0.00	29.912 
11:05	71.5	71.5	71.5	50	51.9	1	2	292	0.00	29.915 
11:10	71.6	71.6	71.6	48	50.9	1	4	270	0.00	29.914 
11:15	71.6	71.6	71.6	49	51.4	1	3	270	0.00	29.914 
11:20	71.6	71.6	71.6	47	50.3	1	3	292	0.00	29.913 
11:25	72.1	72.1	72.1	48	51.3	1	2	292	0.00	29.913 
11:30	72.5	72.5	72.5	48	51.7	1	3	338	0.00	29.912 
11:35	72.7	72.7	72.7	47	51.3	1	4	338	0.00	29.912 
11:40	72.3	72.3	72.3	48	51.5	1	4	315	0.00	29.911 
11:45	72.1	72.1	72.1	46	50.2	2	4	338	0.00	29.912 
11:50	72.5	72.5	72.5	46	50.5	1	4	338	0.00	29.907 
11:55	73.0	73.0	73.0	48	52.1	1	2	338	0.00	29.905 
12:00	73.7	73.7	73.7	48	52.8	1	3	338	0.00	29.902 
12:05	73.9	73.9	73.9	45	51.2	1	5	248	0.00	29.904 
12:10	73.9	73.9	73.9	46	51.8	0	2	315	0.00	29.903 
12:15	74.6	74.6	74.6	46	52.4	1	3	315	0.00	29.901 
12:20	74.0	74.0	74.0	45	51.3	1	3	315	0.00	29.902 
12:25	74.4	74.4	74.4	50	54.5	0	2	292	0.00	29.900 
12:30	74.9	74.9	74.9	46	52.7	2	4	248	0.00	29.901 
12:35	74.9	74.9	74.9	45	52.1	1	5	270	0.00	29.901 
12:40	74.6	74.6	74.6	46	52.4	2	4	270	0.00	29.899 
12:45	74.7	74.7	74.7	47	53.1	1	3	338	0.00	29.896 
12:50	74.2	74.2	74.2	42	49.6	1	4	248	0.00	29.899 
12:55	74.2	74.2	74.2	46	52.1	1	3	270	0.00	29.897 
13:00	73.3	73.3	73.3	43	49.4	1	4	292	0.00	29.892 
13:05	73.2	73.2	73.2	45	50.6	1	3	315	0.00	29.898 
13:10	73.0	73.0	73.0	46	51.0	1	3	292	0.00	29.900 
13:15	73.7	73.7	73.7	45	51.0	1	4	315	0.00	29.895 
13:20	74.6	74.6	74.6	46	52.4	1	3	315	0.00	29.892 
13:25	74.4	74.4	74.4	45	51.7	1	4	315	0.00	29.891 
13:30	74.0	74.0	74.0	42	49.4	1	3	315	0.00	29.891 
13:35	74.2	74.2	74.2	43	50.2	1	4	315	0.00	29.891 
13:40	74.4	74.4	74.4	41	49.1	1	4	315	0.00	29.891 
13:45	73.7	73.7	73.7	40	47.9	1	3	315	0.00	29.891 
13:50	74.2	74.2	74.2	41	49.0	2	3	315	0.00	29.890 
13:55	74.7	74.7	74.7	41	49.4	2	5	225	0.00	29.888 
14:00	74.4	74.4	74.4	39	47.8	1	4	292	0.00	29.889 
14:05	73.9	73.9	73.9	39	47.4	1	3	338	0.00	29.887 
14:10	74.0	74.0	74.0	40	48.1	1	3	338	0.00	29.887 
14:15	74.9	74.9	74.9	41	49.6	0	2	338	0.00	29.883 
14:20	74.9	74.9	74.9	39	48.3	1	3	292	0.00	29.885 
14:25	74.4	74.4	74.4	40	48.5	1	3	292	0.00	29.886 
14:30	73.9	73.9	73.9	40	48.0	1	2	315	0.00	29.887 
14:35	74.2	74.2	74.2	41	49.0	1	4	315	0.00	29.886 
14:40	75.3	75.3	77.6	40	49.3	1	2	270	0.00	29.882 
14:45	75.8	75.8	77.8	41	50.4	1	3	315	0.00	29.883 
14:50	76.5	76.5	78.0	39	49.7	1	3	292	0.00	29.879 
14:55	76.7	76.7	78.0	37	48.4	2	4	292	0.00	29.878 
15:00	76.5	76.5	77.9	37	48.3	2	4	338	0.00	29.882 
15:05	76.5	76.5	77.8	36	47.5	1	4	315	0.00	29.878 
15:10	76.7	76.7	78.1	40	50.5	1	4	270	0.00	29.876 
15:15	77.0	77.0	78.0	35	47.2	1	4	315	0.00	29.877 
15:20	77.2	77.2	78.2	37	48.9	1	3	248	0.00	29.875 
15:25	76.7	76.7	77.7	33	45.4	2	5	270	0.00	29.878 
15:30	75.4	75.4	77.4	35	45.8	1	2	315	0.00	29.881 
15:35	75.6	75.6	77.5	36	46.7	1	3	292	0.00	29.879 
15:40	75.6	75.6	77.5	36	46.7	1	4	315	0.00	29.876 
15:45	75.8	75.8	77.7	38	48.4	1	3	270	0.00	29.873 
15:50	76.3	76.3	77.7	36	47.4	2	4	248	0.00	29.875 
15:55	76.8	76.8	78.0	37	48.5	1	3	270	0.00	29.871 
16:00	76.5	76.5	77.9	38	49.0	0	3	292	0.00	29.870 
16:05	75.6	75.6	77.6	37	47.5	0	1	292	0.00	29.870 
16:10	76.1	76.1	77.8	39	49.3	1	4	292	0.00	29.869 
16:15	76.3	76.3	77.6	34	45.8	2	4	270	0.00	29.869 
16:20	76.0	76.0	77.6	36	47.1	1	4	315	0.00	29.869 
16:25	76.1	76.1	77.7	36	47.2	1	4	315	0.00	29.868 
16:30	76.1	76.1	77.7	37	47.9	1	4	315	0.00	29.868 
16:35	76.7	76.7	78.0	37	48.4	0	2	315	0.00	29.867 
16:40	77.4	77.4	78.3	37	49.1	1	2	292	0.00	29.866 
16:45	77.2	77.2	78.1	36	48.2	1	3	292	0.00	29.867 
16:50	76.8	76.8	77.9	36	47.8	1	3	315	0.00	29.867 
16:55	76.7	76.7	78.0	37	48.4	1	3	292	0.00	29.866 
17:00	76.5	76.5	77.9	37	48.3	1	3	270	0.00	29.864 
17:05	76.1	76.1	77.8	39	49.3	1	2	315	0.00	29.864 
17:10	75.8	75.8	77.7	40	49.7	0	2	315	0.00	29.866 
17:15	76.1	76.1	77.7	37	47.9	1	2	292	0.00	29.864 
17:20	76.3	76.3	77.8	37	48.1	1	4	292	0.00	29.864 
17:25	76.5	76.5	77.9	37	48.3	1	4	270	0.00	29.862 
17:30	76.5	76.5	77.9	37	48.3	1	3	248	0.00	29.859 
17:35	76.3	76.3	77.9	39	49.5	0	1	315	0.00	29.859 
17:40	76.3	76.3	77.9	39	49.5	0	2	315	0.00	29.859 
17:45	76.3	76.3	77.9	39	49.5	1	3	315	0.00	29.858 
17:50	76.3	76.3	77.9	39	49.5	0	1	315	0.00	29.857 
17:55	75.8	75.8	77.7	39	49.1	0	1	315	0.00	29.860 
18:00	75.3	75.3	77.5	39	48.6	0	2	315	0.00	29.860 
18:05	74.9	74.9	74.9	39	48.3	0	1	315	0.00	29.857 
18:10	75.1	75.1	77.6	41	49.8	0	1	315	0.00	29.857 
18:15	75.3	75.3	77.6	42	50.6	0	1	315	0.00	29.855 
18:20	75.3	75.3	77.6	42	50.6	0	1	315	0.00	29.855 
18:25	75.3	75.3	77.6	41	50.0	0	1	315	0.00	29.854 
18:30	75.1	75.1	77.6	42	50.4	0	1	315	0.00	29.854 
18:35	74.6	74.6	74.6	42	50.0	0	1	315	0.00	29.854 
18:40	74.2	74.2	74.2	43	50.2	0	1	315	0.00	29.853 
18:45	74.0	74.0	74.0	45	51.3	0	0	---	0.00	29.853 
18:50	73.9	73.9	73.9	44	50.6	0	0	---	0.00	29.853 
18:55	73.9	73.9	73.9	44	50.6	0	0	---	0.00	29.852 
19:00	73.7	73.7	73.7	45	51.0	0	1	315	0.00	29.852 
19:05	73.7	73.7	73.7	43	49.8	0	0	---	0.00	29.847 
19:10	73.7	73.7	73.7	42	49.2	0	1	315	0.00	29.847 
19:15	73.7	73.7	73.7	41	48.5	0	1	315	0.00	29.848 
19:20	73.7	73.7	73.7	41	48.5	0	1	315	0.00	29.849 
19:25	73.3	73.3	73.3	42	48.8	0	1	315	0.00	29.849 
19:30	73.0	73.0	73.0	43	49.2	0	0	---	0.00	29.851 
19:35	72.5	72.5	72.5	43	48.7	0	0	---	0.00	29.850 
19:40	72.0	72.0	72.0	43	48.3	0	1	315	0.00	29.850 
19:45	71.6	71.6	71.6	43	47.9	0	0	---	0.00	29.853 
19:50	71.3	71.3	71.3	44	48.2	0	0	---	0.00	29.860 
19:55	70.8	70.8	70.8	45	48.4	0	0	---	0.00	29.863 
20:00	70.4	70.4	70.4	44	47.4	0	0	---	0.00	29.865 
20:05	69.9	69.9	69.9	44	47.0	0	0	---	0.00	29.863 
20:10	69.6	69.6	69.6	44	46.7	0	0	---	0.00	29.863 
20:15	69.1	69.1	69.1	45	46.9	0	0	---	0.00	29.864 
20:20	68.6	68.6	68.6	46	47.0	0	0	---	0.00	29.865 
20:25	68.1	68.1	68.1	47	47.1	0	0	---	0.00	29.865 
20:30	67.6	67.6	67.6	48	47.2	0	0	---	0.00	29.867 
20:35	67.1	67.1	67.1	49	47.3	0	0	---	0.00	29.869 
20:40	66.6	66.6	66.6	50	47.4	0	0	---	0.00	29.871 
20:45	66.1	66.1	66.1	50	46.9	0	0	---	0.00	29.875 
20:50	65.8	65.8	65.8	50	46.6	0	0	---	0.00	29.878 
20:55	65.5	65.5	65.5	53	47.9	0	0	---	0.00	29.882 
21:00	65.2	65.2	65.2	54	48.1	0	0	---	0.00	29.884 
21:05	64.7	64.7	64.7	55	48.2	0	0	---	0.00	29.881 
21:10	64.3	64.3	64.3	56	48.3	0	0	---	0.00	29.881 
21:15	63.9	63.9	63.9	58	48.8	0	0	---	0.00	29.883 
21:20	63.4	63.4	63.4	58	48.4	0	0	---	0.00	29.882 
21:25	63.1	63.1	63.1	59	48.5	0	0	---	0.00	29.883 
21:30	62.6	62.6	62.6	61	49.0	0	0	---	0.00	29.885 
21:35	62.3	62.3	62.3	61	48.7	0	0	---	0.00	29.887 
21:40	61.8	61.8	61.8	62	48.6	0	0	---	0.00	29.888 
21:45	61.5	61.5	61.5	64	49.2	0	0	---	0.00	29.892 
21:50	61.2	61.2	61.2	63	48.5	0	0	---	0.00	29.891 
21:55	60.9	60.9	60.9	64	48.6	0	0	---	0.00	29.890 
22:00	60.5	60.5	60.5	64	48.3	0	0	---	0.00	29.890 
22:05	60.2	60.2	60.2	65	48.4	0	0	---	0.00	29.890 
22:10	59.9	59.9	59.9	66	48.5	0	0	---	0.00	29.888 
22:15	59.6	59.6	59.6	67	48.6	0	0	---	0.00	29.887 
22:20	59.3	59.3	59.3	69	49.1	0	0	---	0.00	29.888 
22:25	59.2	59.2	59.2	69	49.0	0	0	---	0.00	29.889 
22:30	58.9	58.9	58.9	70	49.1	0	0	---	0.00	29.889 
22:35	58.7	58.7	58.7	71	49.3	0	0	---	0.00	29.888 
22:40	58.4	58.4	58.4	71	49.0	0	0	---	0.00	29.887 
22:45	58.3	58.3	58.3	72	49.3	0	0	---	0.00	29.891 
22:50	58.1	58.1	58.1	72	49.1	0	0	---	0.00	29.891 
22:55	58.0	58.0	58.0	73	49.4	0	0	---	0.00	29.893 
23:00	57.8	57.8	57.8	73	49.2	0	0	---	0.00	29.892 
23:05	57.5	57.5	57.5	73	48.9	0	0	---	0.00	29.887 
23:10	57.3	57.3	57.3	73	48.7	0	0	---	0.00	29.886 
23:15	57.0	57.0	57.0	75	49.2	0	0	---	0.00	29.886 
23:20	56.9	56.9	56.9	76	49.4	0	0	---	0.00	29.886 
23:25	56.7	56.7	56.7	77	49.6	0	0	---	0.00	29.886 
23:30	56.5	56.5	56.5	78	49.7	0	0	---	0.00	29.885 
23:35	56.3	56.3	56.3	78	49.5	0	0	---	0.00	29.886 
23:40	56.2	56.2	56.2	79	49.8	0	0	---	0.00	29.888 
23:45	56.0	56.0	56.0	79	49.6	0	0	---	0.00	29.892 
23:50	55.7	55.7	55.7	79	49.3	0	0	---	0.00	29.897 
23:55	55.6	55.6	55.6	80	49.5	0	0	---	0.00	29.894 

CoCoRaHS
IN-AL-39
A2 Web Hosting
Creative Commons License
GoDaddy
Look for:

loaded 2017-10-18 21:57:55 • last modified 2010-11-18 10:43:29
Privacy PolicyDisclaimer
• wx.awcolley.com is powered by PmWiki v.2002016 •
• all content (unless otherwise noted) © 2017 A W Colley